createdAt,value
2023-04-06T00:00:08.925Z,65.59
2023-04-06T00:05:08.949Z,65.63
2023-04-06T00:10:08.025Z,65.63
2023-04-06T00:15:08.082Z,65.65
2023-04-06T00:20:08.133Z,65.65
2023-04-06T00:25:08.163Z,65.69
2023-04-06T00:30:08.203Z,65.69
2023-04-06T00:35:08.267Z,65.69
2023-04-06T00:40:08.318Z,65.69
2023-04-06T00:45:08.351Z,65.69
2023-04-06T00:50:08.370Z,65.75
2023-04-06T00:55:08.463Z,65.77
2023-04-06T01:00:08.517Z,65.77
2023-04-06T01:05:08.652Z,65.79
2023-04-06T01:10:08.806Z,65.81
2023-04-06T01:15:08.825Z,65.84
2023-04-06T01:20:08.900Z,65.85
2023-04-06T01:25:09.015Z,65.85
2023-04-06T01:30:08.088Z,65.88
2023-04-06T01:35:08.169Z,65.9
2023-04-06T01:40:08.222Z,65.92
2023-04-06T01:45:08.483Z,65.91
2023-04-06T01:50:08.613Z,65.91
2023-04-06T01:55:08.742Z,65.94
2023-04-06T02:00:08.764Z,65.94
2023-04-06T02:05:08.790Z,65.96
2023-04-06T02:10:08.830Z,65.97
2023-04-06T02:15:08.895Z,65.99
2023-04-06T02:20:08.946Z,66.0
2023-04-06T02:25:08.010Z,66.01
2023-04-06T02:30:08.067Z,66.03
2023-04-06T02:35:08.085Z,66.05
2023-04-06T02:40:08.155Z,66.04
2023-04-06T02:45:08.230Z,66.05
2023-04-06T02:50:08.292Z,66.07
2023-04-06T02:55:08.355Z,66.08
2023-04-06T03:00:08.359Z,66.07
2023-04-06T03:05:08.424Z,66.07
2023-04-06T03:10:08.502Z,66.12
2023-04-06T03:15:08.595Z,66.12
2023-04-06T03:20:08.659Z,66.11
2023-04-06T03:25:08.688Z,66.12
2023-04-06T03:30:08.837Z,66.13
2023-04-06T03:35:08.867Z,66.12
2023-04-06T03:40:08.921Z,66.13
2023-04-06T03:45:08.014Z,66.17
2023-04-06T03:50:08.045Z,66.17
2023-04-06T03:55:08.134Z,66.16
2023-04-06T04:00:08.163Z,66.17
2023-04-06T04:05:13.338Z,66.17
2023-04-06T04:10:04.753Z,66.18
2023-04-06T04:15:03.109Z,66.19
2023-04-06T04:20:03.490Z,66.18
2023-04-06T04:25:04.511Z,66.18
2023-04-06T04:30:03.782Z,66.18
2023-04-06T04:35:03.901Z,66.19
2023-04-06T04:40:04.198Z,66.21
2023-04-06T04:45:05.910Z,66.21
2023-04-06T04:50:15.348Z,66.21
2023-04-06T04:55:11.290Z,66.21
2023-04-06T05:00:07.330Z,66.21
2023-04-06T05:05:06.370Z,66.23
2023-04-06T05:10:06.371Z,66.24
2023-04-06T05:15:13.651Z,66.24
2023-04-06T05:20:06.283Z,66.29
2023-04-06T05:25:07.294Z,66.28
2023-04-06T05:30:06.915Z,66.29
2023-04-06T05:35:06.245Z,66.3
2023-04-06T05:40:10.409Z,66.31
2023-04-06T05:45:06.539Z,66.33
2023-04-06T05:50:07.039Z,66.34
2023-04-06T05:55:08.450Z,66.35
2023-04-06T06:00:07.098Z,66.35
2023-04-06T06:05:13.170Z,66.38
2023-04-06T06:10:14.613Z,66.38
2023-04-06T06:15:15.739Z,66.41
2023-04-06T06:20:13.320Z,66.41
2023-04-06T06:25:15.273Z,66.39
2023-04-06T06:30:13.638Z,66.39
2023-04-06T06:35:14.047Z,66.38
2023-04-06T06:40:16.126Z,66.37
2023-04-06T06:45:13.115Z,66.35
2023-04-06T06:50:13.897Z,66.35
2023-04-06T06:55:09.370Z,66.31
2023-04-06T07:00:13.808Z,66.29
2023-04-06T07:05:27.022Z,66.24
2023-04-06T07:10:03.082Z,66.22
2023-04-06T07:15:03.491Z,66.2
2023-04-06T07:20:03.295Z,66.15
2023-04-06T07:25:05.020Z,66.11
2023-04-06T07:30:05.095Z,66.06
2023-04-06T07:35:04.424Z,66.02
2023-04-06T07:40:03.086Z,65.96
2023-04-06T07:45:14.566Z,65.96
2023-04-06T07:50:05.132Z,65.93
2023-04-06T07:55:03.568Z,65.91
2023-04-06T08:00:06.301Z,65.86
2023-04-06T08:05:04.754Z,65.81
2023-04-06T08:10:03.815Z,65.75
2023-04-06T08:15:05.685Z,65.73
2023-04-06T08:20:06.412Z,65.67
2023-04-06T08:25:05.501Z,65.65
2023-04-06T08:30:03.594Z,65.57
2023-04-06T08:35:04.108Z,65.54
2023-04-06T08:40:02.305Z,65.49
2023-04-06T08:45:05.824Z,65.44
2023-04-06T08:50:04.228Z,65.42
2023-04-06T08:55:08.316Z,65.42
2023-04-06T09:00:03.558Z,65.34
2023-04-06T09:05:05.654Z,65.27
2023-04-06T09:10:04.225Z,65.2
2023-04-06T09:15:03.127Z,65.16
2023-04-06T09:20:06.240Z,65.07
2023-04-06T09:25:02.766Z,65.03
2023-04-06T09:30:04.906Z,64.99
2023-04-06T09:35:05.247Z,64.95
2023-04-06T09:40:06.933Z,64.94
2023-04-06T09:45:03.851Z,64.9
2023-04-06T09:50:05.091Z,64.9
2023-04-06T09:55:07.716Z,64.87
2023-04-06T10:00:05.493Z,64.84
2023-04-06T10:05:03.714Z,64.84
2023-04-06T10:10:03.767Z,64.81
2023-04-06T10:15:03.408Z,64.78
2023-04-06T10:20:03.418Z,64.74
2023-04-06T10:25:04.210Z,64.73
2023-04-06T10:30:02.855Z,64.7
2023-04-06T10:35:09.066Z,64.69
2023-04-06T10:40:04.087Z,64.67
2023-04-06T10:45:07.325Z,64.63
2023-04-06T10:50:04.865Z,64.59
2023-04-06T10:55:07.861Z,64.57
2023-04-06T11:00:03.240Z,64.52
2023-04-06T11:05:04.354Z,64.49
2023-04-06T11:10:15.578Z,64.48
2023-04-06T11:15:03.711Z,64.44
2023-04-06T11:20:04.877Z,64.44
2023-04-06T11:25:03.474Z,64.44
2023-04-06T11:30:03.951Z,64.42
2023-04-06T11:35:04.353Z,64.43
2023-04-06T11:40:06.318Z,64.43
2023-04-06T11:45:04.222Z,64.43
2023-04-06T11:50:05.176Z,64.47
2023-04-06T11:55:04.385Z,64.47
2023-04-06T12:00:06.136Z,64.48
2023-04-06T12:05:03.284Z,64.47
2023-04-06T12:10:03.106Z,64.48
2023-04-06T12:15:02.723Z,64.47
2023-04-06T12:20:17.605Z,64.48
2023-04-06T12:25:02.728Z,64.48
2023-04-06T12:30:03.626Z,64.44
2023-04-06T12:35:04.543Z,64.42
2023-04-06T12:40:03.793Z,64.42
2023-04-06T12:45:05.141Z,64.42
2023-04-06T12:50:04.135Z,64.33
2023-04-06T12:55:05.877Z,64.32
2023-04-06T13:00:07.056Z,64.29
2023-04-06T13:05:03.170Z,64.28
2023-04-06T13:10:04.195Z,64.28
2023-04-06T13:15:03.855Z,64.27
2023-04-06T13:20:04.400Z,64.3
2023-04-06T13:25:02.554Z,64.35
2023-04-06T13:30:02.807Z,64.38
2023-04-06T13:35:03.024Z,64.41
2023-04-06T13:40:02.158Z,64.45
2023-04-06T13:45:02.573Z,64.51
2023-04-06T13:50:02.776Z,64.58
2023-04-06T13:55:03.211Z,64.64
2023-04-06T14:00:05.089Z,64.64
2023-04-06T14:05:02.519Z,64.78
2023-04-06T14:10:02.732Z,64.84
2023-04-06T14:15:02.950Z,64.92
2023-04-06T14:20:02.253Z,65.01
2023-04-06T14:25:02.428Z,65.09
2023-04-06T14:30:02.751Z,65.09
2023-04-06T14:35:04.061Z,65.16
2023-04-06T14:40:02.761Z,65.19
2023-04-06T14:45:03.033Z,65.23
2023-04-06T14:50:02.233Z,65.26
2023-04-06T14:55:02.549Z,65.32
2023-04-06T15:00:02.752Z,65.35
2023-04-06T15:05:03.020Z,65.38
2023-04-06T15:10:02.218Z,65.43
2023-04-06T15:15:02.374Z,65.49
2023-04-06T15:20:02.506Z,65.53
2023-04-06T15:25:02.620Z,65.58
2023-04-06T15:30:02.903Z,65.64
2023-04-06T15:35:03.096Z,65.7
2023-04-06T15:40:02.274Z,65.74
2023-04-06T15:45:02.557Z,65.79
2023-04-06T15:50:02.905Z,65.83
2023-04-06T15:55:02.166Z,65.87
2023-04-06T16:00:02.546Z,65.91
2023-04-06T16:05:02.722Z,65.95
2023-04-06T16:10:02.989Z,66.0
2023-04-06T16:15:02.202Z,66.04
2023-04-06T16:20:02.525Z,66.07
2023-04-06T16:25:02.753Z,66.13
2023-04-06T16:35:03.136Z,66.14
2023-04-06T16:40:02.316Z,66.23
2023-04-06T16:45:02.553Z,66.25
2023-04-06T16:50:05.804Z,66.29
2023-04-06T16:55:02.451Z,66.29
2023-04-06T17:00:02.726Z,66.38
2023-04-06T17:05:02.983Z,66.39
2023-04-06T17:10:02.242Z,66.42
2023-04-06T17:15:02.588Z,66.42
2023-04-06T17:20:02.848Z,66.51
2023-04-06T17:25:03.077Z,66.53
2023-04-06T17:30:02.502Z,66.57
2023-04-06T17:35:02.588Z,66.57
2023-04-06T17:40:02.936Z,66.63
2023-04-06T17:45:02.107Z,66.66
2023-04-06T17:50:02.379Z,66.68
2023-04-06T17:55:02.521Z,66.68
2023-04-06T18:00:02.656Z,66.71
2023-04-06T18:05:03.407Z,66.75
2023-04-06T18:10:02.640Z,66.79
2023-04-06T18:15:02.975Z,66.79
2023-04-06T18:20:02.242Z,66.82
2023-04-06T18:25:02.471Z,66.85
2023-04-06T18:30:02.688Z,66.86
2023-04-06T18:35:02.902Z,66.87
2023-04-06T18:40:03.064Z,66.89
2023-04-06T18:45:02.232Z,66.93
2023-04-06T18:50:02.394Z,66.95
2023-04-06T18:55:02.552Z,66.96
2023-04-06T19:00:02.805Z,66.97
2023-04-06T19:05:03.356Z,66.99
2023-04-06T19:10:02.591Z,67.0
2023-04-06T19:15:02.706Z,67.0
2023-04-06T19:20:02.877Z,67.01
2023-04-06T19:25:03.232Z,67.01
2023-04-06T19:30:02.304Z,67.05
2023-04-06T19:35:02.493Z,67.06
2023-04-06T19:40:02.836Z,67.07
2023-04-06T19:45:03.084Z,67.09
2023-04-06T19:50:02.240Z,67.11
2023-04-06T19:55:02.457Z,67.11
2023-04-06T20:00:02.731Z,67.12
2023-04-06T20:05:02.878Z,67.11
2023-04-06T20:10:02.051Z,67.13
2023-04-06T20:15:02.519Z,67.15
2023-04-06T20:20:02.684Z,67.15
2023-04-06T20:25:03.102Z,67.15
2023-04-06T20:30:02.188Z,67.15
2023-04-06T20:35:02.615Z,67.17
2023-04-06T20:40:02.789Z,67.17
2023-04-06T20:45:03.047Z,67.19
2023-04-06T20:50:02.239Z,67.21
2023-04-06T20:55:02.451Z,67.2
2023-04-06T21:00:02.631Z,67.2
2023-04-06T21:05:15.719Z,67.23
2023-04-06T21:10:08.795Z,67.23
2023-04-06T21:15:08.823Z,67.23
2023-04-06T21:20:08.907Z,67.23
2023-04-06T21:25:08.961Z,67.23
2023-04-06T21:30:08.040Z,67.26
2023-04-06T21:35:08.069Z,67.23
2023-04-06T21:40:08.141Z,67.26
2023-04-06T21:45:08.218Z,67.26
2023-04-06T21:50:08.259Z,67.28
2023-04-06T21:55:08.299Z,67.27
2023-04-06T22:00:08.362Z,67.28
2023-04-06T22:05:08.668Z,67.29
2023-04-06T22:10:08.866Z,67.3
2023-04-06T22:15:08.878Z,67.3
2023-04-06T22:20:08.955Z,67.31
2023-04-06T22:25:07.974Z,67.31
2023-04-06T22:30:08.005Z,67.31
2023-04-06T22:35:08.010Z,67.31
2023-04-06T22:40:08.053Z,67.33
2023-04-06T22:45:08.114Z,67.32
2023-04-06T22:50:08.160Z,67.33
2023-04-06T22:55:08.308Z,67.35
2023-04-06T23:01:12.901Z,67.35
2023-04-06T23:05:08.923Z,67.35
2023-04-06T23:10:08.832Z,67.37
2023-04-06T23:15:08.932Z,67.37
2023-04-06T23:20:07.978Z,67.37
2023-04-06T23:25:08.051Z,67.37
2023-04-06T23:30:08.119Z,67.37
2023-04-06T23:35:08.163Z,67.39
2023-04-06T23:40:08.210Z,67.4
2023-04-06T23:45:08.231Z,67.4
2023-04-06T23:50:08.274Z,67.4
2023-04-06T23:55:08.281Z,67.39
